^^
Scobey's Weather Historical Data
 
Daily Summary for August 20, 2018 Units:  English    Metric   Both
Daily Weekly Monthly Yearly Custom
  Current: High: Low: Average:
Temperature: 52.8 °F 54.9 °F 52.8 °F 54.3 °F
Dew Point: 46.5 °F 48.2 °F 46.2 °F 47.7 °F
Humidity: 79% 79% 78% 78%
Wind Speed: 0mph 1mph 0mph 0.1mph
Wind Gust: 0mph 4mph - -
WindCalm - - ESE
Pressure: 30.09 in 30.12 in 30.09 in -
Precipitation: 0 in      
Historical Graphs
 
 
Tabular Data for August 20, 2018
Time Temperature Dew Point Pressure Wind Wind Speed Wind Gust Humidity Rainfall Rate (Hourly) solar
00:04 54.7 °F 48 °F 30.11 in Calm     78% 0 in 0.00 W/m2
00:09 54.7 °F 48 °F 30.11 in Calm     78% 0 in 0.00 W/m2
00:14 54.8 °F 48.1 °F 30.11 in Calm     78% 0 in 0.00 W/m2
00:19 54.8 °F 48.1 °F 30.10 in Calm     78% 0 in 0.00 W/m2
00:24 54.8 °F 48.1 °F 30.11 in Calm     78% 0 in 0.00 W/m2
00:29 54.7 °F 48 °F 30.11 in Calm   3 mph 78% 0 in 0.00 W/m2
00:34 54.8 °F 48.1 °F 30.11 in Calm   3 mph 78% 0 in 0.00 W/m2
00:39 54.8 °F 48.1 °F 30.11 in Calm   3 mph 78% 0 in 0.00 W/m2
00:44 54.8 °F 48.1 °F 30.12 in Calm     78% 0 in 0.00 W/m2
00:49 54.7 °F 48 °F 30.12 in Calm     78% 0 in 0.00 W/m2
00:54 54.7 °F 48 °F 30.12 in Calm   2 mph 78% 0 in 0.00 W/m2
00:59 54.7 °F 48 °F 30.11 in Calm   3 mph 78% 0 in 0.00 W/m2
01:04 54.8 °F 48.1 °F 30.11 in North 1 mph 3 mph 78% 0 in 0.00 W/m2
01:09 54.8 °F 48.1 °F 30.11 in Calm   3 mph 78% 0 in 0.00 W/m2
01:14 54.8 °F 48.1 °F 30.11 in NNE 1 mph 3 mph 78% 0 in 0.00 W/m2
01:19 54.8 °F 48.1 °F 30.11 in NNE 1 mph 3 mph 78% 0 in 0.00 W/m2
01:24 54.7 °F 48 °F 30.11 in Calm   3 mph 78% 0 in 0.00 W/m2
01:29 54.7 °F 48 °F 30.11 in Calm   2 mph 78% 0 in 0.00 W/m2
01:34 54.7 °F 48 °F 30.12 in Calm   2 mph 78% 0 in 0.00 W/m2
01:39 54.7 °F 48 °F 30.12 in Calm   2 mph 78% 0 in 0.00 W/m2
01:44 54.7 °F 48 °F 30.12 in Calm   1 mph 78% 0 in 0.00 W/m2
01:49 54.7 °F 48 °F 30.11 in Calm   2 mph 78% 0 in 0.00 W/m2
01:54 54.7 °F 48 °F 30.11 in Calm   2 mph 78% 0 in 0.00 W/m2
01:59 54.8 °F 48.1 °F 30.12 in Calm   4 mph 78% 0 in 0.00 W/m2
02:04 54.8 °F 48.1 °F 30.11 in Calm   4 mph 78% 0 in 0.00 W/m2
02:09 54.8 °F 48.1 °F 30.11 in North 1 mph 3 mph 78% 0 in 0.00 W/m2
02:14 54.9 °F 48.2 °F 30.12 in North 1 mph 3 mph 78% 0 in 0.00 W/m2
02:19 54.8 °F 48.1 °F 30.11 in NNW 1 mph 3 mph 78% 0 in 0.00 W/m2
02:24 54.8 °F 48.1 °F 30.11 in Calm   3 mph 78% 0 in 0.00 W/m2
02:29 54.8 °F 48.1 °F 30.11 in Calm   3 mph 78% 0 in 0.00 W/m2
02:34 54.8 °F 48.1 °F 30.11 in Calm   1 mph 78% 0 in 0.00 W/m2
02:39 54.8 °F 48.1 °F 30.11 in Calm   3 mph 78% 0 in 0.00 W/m2
02:44 54.8 °F 48.1 °F 30.11 in Calm   3 mph 78% 0 in 0.00 W/m2
02:49 54.7 °F 48 °F 30.11 in Calm   1 mph 78% 0 in 0.00 W/m2
02:54 54.7 °F 48 °F 30.11 in Calm   1 mph 78% 0 in 0.00 W/m2
02:59 54.7 °F 48 °F 30.11 in Calm   1 mph 78% 0 in 0.00 W/m2
03:04 54.7 °F 48 °F 30.11 in Calm   1 mph 78% 0 in 0.00 W/m2
03:09 54.6 °F 47.9 °F 30.11 in Calm   1 mph 78% 0 in 0.00 W/m2
03:14 54.5 °F 47.8 °F 30.11 in Calm     78% 0 in 0.00 W/m2
03:19 54.5 °F 47.8 °F 30.11 in Calm     78% 0 in 0.00 W/m2
03:24 54.4 °F 47.7 °F 30.11 in Calm     78% 0 in 0.00 W/m2
03:29 54.4 °F 47.7 °F 30.11 in Calm   2 mph 78% 0 in 0.00 W/m2
03:34 54.5 °F 48.1 °F 30.10 in Calm   2 mph 79% 0 in 0.00 W/m2
03:39 54.5 °F 48.1 °F 30.10 in Calm   2 mph 79% 0 in 0.00 W/m2
03:44 54.5 °F 48.1 °F 30.11 in Calm   2 mph 79% 0 in 0.00 W/m2
03:49 54.4 °F 48 °F 30.11 in Calm   2 mph 79% 0 in 0.00 W/m2
03:54 54.4 °F 48 °F 30.11 in Calm     79% 0 in 0.00 W/m2
03:59 54.4 °F 47.7 °F 30.11 in Calm     78% 0 in 0.00 W/m2
04:04 54.3 °F 47.9 °F 30.11 in Calm     79% 0 in 0.00 W/m2
04:09 54.3 °F 47.9 °F 30.11 in Calm   1 mph 79% 0 in 0.00 W/m2
04:14 54.3 °F 47.9 °F 30.11 in Calm   1 mph 79% 0 in 0.00 W/m2
04:19 54.3 °F 47.9 °F 30.10 in Calm   2 mph 79% 0 in 0.00 W/m2
04:24 54.3 °F 47.9 °F 30.10 in Calm   2 mph 79% 0 in 0.00 W/m2
04:29 54.3 °F 47.9 °F 30.10 in Calm   3 mph 79% 0 in 0.00 W/m2
04:34 54.2 °F 47.8 °F 30.10 in North 1 mph 3 mph 79% 0 in 0.00 W/m2
04:39 54.2 °F 47.8 °F 30.10 in Calm   3 mph 79% 0 in 0.00 W/m2
04:44 54.1 °F 47.7 °F 30.10 in Calm   1 mph 79% 0 in 0.00 W/m2
04:49 54 °F 47.3 °F 30.10 in Calm   1 mph 78% 0 in 0.00 W/m2
04:54 54 °F 47.3 °F 30.10 in Calm   1 mph 78% 0 in 0.00 W/m2
04:59 53.9 °F 47.2 °F 30.10 in Calm     78% 0 in 0.00 W/m2
05:04 53.7 °F 47 °F 30.10 in Calm     78% 0 in 0.00 W/m2
05:09 53.5 °F 46.8 °F 30.10 in Calm     78% 0 in 0.00 W/m2
05:14 53.4 °F 46.7 °F 30.10 in Calm     78% 0 in 0.00 W/m2
05:19 53.3 °F 46.6 °F 30.10 in Calm   1 mph 78% 0 in 0.00 W/m2
05:24 53.1 °F 46.4 °F 30.10 in Calm   1 mph 78% 0 in 0.00 W/m2
05:29 52.9 °F 46.2 °F 30.11 in Calm     78% 0 in 0.00 W/m2
05:34 52.9 °F 46.2 °F 30.11 in Calm     78% 0 in 0.00 W/m2
05:39 52.9 °F 46.6 °F 30.10 in Calm   2 mph 79% 0 in 0.00 W/m2
05:44 53 °F 46.7 °F 30.10 in Calm   3 mph 79% 0 in 0.00 W/m2
05:49 53.1 °F 46.8 °F 30.09 in Calm   3 mph 79% 0 in 0.00 W/m2
05:54 53 °F 46.7 °F 30.10 in Calm   2 mph 79% 0 in 0.00 W/m2
05:59 53 °F 46.7 °F 30.09 in Calm     79% 0 in 0.00 W/m2
06:04 52.9 °F 46.6 °F 30.09 in Calm     79% 0 in 0.00 W/m2
06:09 52.8 °F 46.5 °F 30.09 in Calm     79% 0 in 0.00 W/m2
Scobey\s Weather
Compliments of Weather Underground - 2 mb

USA Weather Finder






Flag Counter